Time;durP1;ratioP1;P1;durP2;ratioP2;P2;SDS_P1;SDS_P2;PMS_P1;PMS_P2;Temp;Humidity;BMP_temperature;BMP_pressure;BME280_temperature;BME280_humidity;BME280_pressure;Samples;Min_cycle;Max_cycle;Signal;HPM_P1;HPM_P2
2023/10/26 00:00:38;;;;;;;13.43;6.82;;;;;;;;;;5058143;28;20057;-66
2023/10/26 00:03:06;;;;;;;15.27;6.90;;;;;;;;;;5062270;28;20052;-65
2023/10/26 00:05:33;;;;;;;12.50;6.28;;;;;;;;;;5057189;28;20044;-66
2023/10/26 00:08:00;;;;;;;12.05;5.97;;;;;;;;;;5064382;28;20052;-66
2023/10/26 00:10:27;;;;;;;12.82;5.57;;;;;;;;;;5062328;28;20048;-65
2023/10/26 00:12:54;;;;;;;10.70;5.68;;;;;;;;;;5067608;28;20047;-66
2023/10/26 00:15:23;;;;;;;10.40;6.25;;;;;;;;;;5065943;28;20487;-65
2023/10/26 00:17:50;;;;;;;13.35;6.72;;;;;;;;;;5061601;28;20056;-65
2023/10/26 00:20:18;;;;;;;13.27;6.35;;;;;;;;;;5057360;28;20484;-65
2023/10/26 00:22:45;;;;;;;15.18;6.88;;;;;;;;;;5058235;28;20041;-65
2023/10/26 00:25:12;;;;;;;15.15;7.32;;;;;;;;;;5058717;28;20165;-66
2023/10/26 00:27:41;;;;;;;17.48;7.18;;;;;;;;;;5061359;28;20417;-65
2023/10/26 00:30:09;;;;;;;18.60;8.52;;;;;;;;;;5064229;28;20057;-65
2023/10/26 00:32:38;;;;;;;20.33;10.45;;;;;;;;;;5060152;28;20491;-67
2023/10/26 00:35:05;;;;;;;25.08;11.30;;;;;;;;;;5064643;28;20049;-66
2023/10/26 00:37:32;;;;;;;25.52;9.85;;;;;;;;;;5055736;28;20060;-66
2023/10/26 00:40:00;;;;;;;23.00;10.43;;;;;;;;;;5057651;28;20052;-65
2023/10/26 00:42:27;;;;;;;24.73;10.60;;;;;;;;;;5054434;28;20049;-65
2023/10/26 00:44:56;;;;;;;22.52;10.90;;;;;;;;;;5058765;28;20484;-65
2023/10/26 00:47:25;;;;;;;24.88;11.43;;;;;;;;;;5059680;28;20419;-66
2023/10/26 00:49:53;;;;;;;25.20;11.27;;;;;;;;;;5060201;28;20377;-65
2023/10/26 00:52:21;;;;;;;22.83;10.63;;;;;;;;;;5053678;28;20052;-67
2023/10/26 00:54:48;;;;;;;25.85;10.45;;;;;;;;;;5057862;28;20052;-65
2023/10/26 00:57:17;;;;;;;23.00;10.93;;;;;;;;;;5062693;28;20056;-67
2023/10/26 00:59:45;;;;;;;25.65;11.65;;;;;;;;;;5058305;28;20052;-65
2023/10/26 01:02:13;;;;;;;23.30;10.65;;;;;;;;;;5060548;28;20088;-67
2023/10/26 01:04:41;;;;;;;20.60;10.32;;;;;;;;;;5061177;28;20041;-65
2023/10/26 01:07:09;;;;;;;23.70;10.60;;;;;;;;;;5059681;28;20049;-66
2023/10/26 01:09:37;;;;;;;22.65;10.65;;;;;;;;;;5062281;28;20052;-66
2023/10/26 01:12:04;;;;;;;28.98;12.40;;;;;;;;;;5062712;28;20060;-65
2023/10/26 01:14:32;;;;;;;26.08;11.52;;;;;;;;;;5062793;28;20416;-65
2023/10/26 01:16:59;;;;;;;30.63;11.85;;;;;;;;;;5057457;28;20386;-65
2023/10/26 01:19:38;;;;;;;31.70;11.90;;;;;;;;;;5051225;28;20057;-66
2023/10/26 01:22:07;;;;;;;23.85;11.98;;;;;;;;;;5053475;28;20103;-65
2023/10/26 01:24:34;;;;;;;32.00;11.80;;;;;;;;;;5057907;28;20049;-66
2023/10/26 01:27:02;;;;;;;23.15;10.60;;;;;;;;;;5060934;28;20476;-66
2023/10/26 01:29:29;;;;;;;27.40;11.55;;;;;;;;;;5055208;28;20072;-66
2023/10/26 01:31:56;;;;;;;28.05;10.73;;;;;;;;;;5063505;28;20416;-66
2023/10/26 01:34:23;;;;;;;27.48;10.45;;;;;;;;;;5057015;28;20148;-66
2023/10/26 01:36:51;;;;;;;19.52;10.43;;;;;;;;;;5062723;28;20392;-66
2023/10/26 01:39:19;;;;;;;26.80;10.40;;;;;;;;;;5061950;28;20496;-67
2023/10/26 01:41:47;;;;;;;27.75;10.23;;;;;;;;;;5056834;28;20052;-65
2023/10/26 01:44:14;;;;;;;31.48;11.18;;;;;;;;;;5059074;28;20462;-65
2023/10/26 01:46:42;;;;;;;22.23;9.25;;;;;;;;;;5056129;28;20040;-65
2023/10/26 01:49:10;;;;;;;24.02;10.55;;;;;;;;;;5060537;28;20427;-65
2023/10/26 01:51:37;;;;;;;23.15;9.98;;;;;;;;;;5059263;28;20052;-65
2023/10/26 01:54:05;;;;;;;23.17;10.65;;;;;;;;;;5057635;28;20381;-66
2023/10/26 01:56:33;;;;;;;26.05;11.02;;;;;;;;;;5060850;28;20484;-65
2023/10/26 01:59:00;;;;;;;23.75;12.07;;;;;;;;;;5062502;28;20511;-65
2023/10/26 02:01:28;;;;;;;22.80;10.77;;;;;;;;;;5069283;28;20055;-65
2023/10/26 02:03:55;;;;;;;22.45;11.25;;;;;;;;;;5060411;28;20045;-65
2023/10/26 02:06:22;;;;;;;27.25;11.55;;;;;;;;;;5064118;28;20049;-65
2023/10/26 02:08:49;;;;;;;19.08;10.57;;;;;;;;;;5059740;28;20053;-65
2023/10/26 02:11:16;;;;;;;31.88;12.95;;;;;;;;;;5061048;28;20134;-65
2023/10/26 02:13:45;;;;;;;26.27;12.73;;;;;;;;;;5055115;28;20052;-66
2023/10/26 02:16:13;;;;;;;31.55;12.43;;;;;;;;;;5059210;28;20044;-65
2023/10/26 02:18:41;;;;;;;28.77;12.27;;;;;;;;;;5058188;28;20064;-65
2023/10/26 02:21:09;;;;;;;22.98;11.18;;;;;;;;;;5060166;28;20045;-65
2023/10/26 02:23:36;;;;;;;28.67;11.70;;;;;;;;;;5060034;28;20472;-68
2023/10/26 02:26:03;;;;;;;26.65;12.10;;;;;;;;;;5066909;28;20052;-65
2023/10/26 02:28:30;;;;;;;32.17;13.68;;;;;;;;;;5063906;28;20123;-68
2023/10/26 02:30:59;;;;;;;27.08;11.65;;;;;;;;;;5061210;28;20590;-66
2023/10/26 02:33:26;;;;;;;32.60;12.95;;;;;;;;;;5068862;28;20730;-66
2023/10/26 02:35:53;;;;;;;31.85;13.57;;;;;;;;;;5055448;28;20041;-68
2023/10/26 02:38:20;;;;;;;28.27;13.18;;;;;;;;;;5068451;28;20056;-65
2023/10/26 02:40:48;;;;;;;29.85;13.10;;;;;;;;;;5061078;28;20079;-66
2023/10/26 02:43:16;;;;;;;28.52;13.93;;;;;;;;;;5060664;28;20056;-66
2023/10/26 02:45:43;;;;;;;35.00;14.25;;;;;;;;;;5056957;28;20045;-66
2023/10/26 02:48:11;;;;;;;28.48;14.45;;;;;;;;;;5060690;28;20053;-65
2023/10/26 02:50:38;;;;;;;36.40;13.63;;;;;;;;;;5060668;28;20075;-66
2023/10/26 02:53:05;;;;;;;26.05;12.45;;;;;;;;;;5054624;28;20064;-65
2023/10/26 02:55:32;;;;;;;40.83;12.55;;;;;;;;;;5062866;28;20041;-65
2023/10/26 02:58:00;;;;;;;62.03;14.48;;;;;;;;;;5064709;28;20052;-66
2023/10/26 03:00:27;;;;;;;37.60;12.93;;;;;;;;;;5058600;28;20539;-66
2023/10/26 03:02:54;;;;;;;85.95;13.15;;;;;;;;;;5064027;28;20044;-66
2023/10/26 03:05:23;;;;;;;57.15;11.13;;;;;;;;;;5062376;28;20056;-65
2023/10/26 03:07:50;;;;;;;155.52;14.75;;;;;;;;;;5065683;28;20048;-65
2023/10/26 03:10:17;;;;;;;53.33;10.32;;;;;;;;;;5065560;28;20060;-66
2023/10/26 03:12:47;;;;;;;162.60;11.95;;;;;;;;;;5054431;28;20052;-67
2023/10/26 03:15:14;;;;;;;121.38;11.50;;;;;;;;;;5063468;28;20062;-66
2023/10/26 03:17:41;;;;;;;234.88;12.57;;;;;;;;;;5056520;28;20081;-66
2023/10/26 03:20:09;;;;;;;233.45;13.00;;;;;;;;;;5054115;28;20064;-66
2023/10/26 03:22:37;;;;;;;219.15;11.27;;;;;;;;;;5060526;28;20071;-65
2023/10/26 03:25:06;;;;;;;189.43;11.77;;;;;;;;;;5057641;28;20049;-66
2023/10/26 03:27:33;;;;;;;152.02;10.65;;;;;;;;;;5056567;28;20497;-65
2023/10/26 03:30:00;;;;;;;89.50;10.27;;;;;;;;;;5062027;28;20140;-65
2023/10/26 03:32:27;;;;;;;121.65;10.20;;;;;;;;;;5063613;28;20048;-68
2023/10/26 03:34:57;;;;;;;104.22;9.55;;;;;;;;;;5063140;28;20484;-65
2023/10/26 03:37:24;;;;;;;118.10;9.95;;;;;;;;;;5060116;28;20530;-68
2023/10/26 03:39:53;;;;;;;104.70;10.02;;;;;;;;;;5061054;28;20056;-65
2023/10/26 03:42:20;;;;;;;85.93;9.60;;;;;;;;;;5062114;28;20049;-65
2023/10/26 03:44:47;;;;;;;92.35;9.10;;;;;;;;;;5062772;28;20052;-66
2023/10/26 03:47:15;;;;;;;114.30;9.38;;;;;;;;;;5060100;28;20403;-66
2023/10/26 03:49:42;;;;;;;64.38;8.50;;;;;;;;;;5067518;28;20052;-66
2023/10/26 03:52:09;;;;;;;63.55;8.90;;;;;;;;;;5060545;28;20045;-67
2023/10/26 03:54:37;;;;;;;96.93;9.25;;;;;;;;;;5055331;28;20041;-65
2023/10/26 03:57:06;;;;;;;165.60;10.48;;;;;;;;;;5055129;28;20060;-66
2023/10/26 03:59:33;;;;;;;114.38;9.38;;;;;;;;;;5057183;28;20049;-66
2023/10/26 04:02:00;;;;;;;178.88;9.60;;;;;;;;;;5055337;28;20487;-66
2023/10/26 04:04:28;;;;;;;90.38;8.90;;;;;;;;;;5058626;28;20084;-66
2023/10/26 04:06:55;;;;;;;122.80;9.93;;;;;;;;;;5060024;28;20049;-65
2023/10/26 04:09:22;;;;;;;172.68;9.73;;;;;;;;;;5057351;28;20500;-65
2023/10/26 04:11:49;;;;;;;197.65;10.00;;;;;;;;;;5054275;28;20230;-65
2023/10/26 04:14:18;;;;;;;123.68;8.60;;;;;;;;;;5056996;28;20219;-65
2023/10/26 04:16:47;;;;;;;160.00;9.45;;;;;;;;;;5059304;28;20134;-66
2023/10/26 04:19:14;;;;;;;190.02;11.40;;;;;;;;;;5057348;28;20048;-66
2023/10/26 04:21:42;;;;;;;165.25;25.15;;;;;;;;;;5059958;28;20109;-66
2023/10/26 04:24:09;;;;;;;113.07;12.13;;;;;;;;;;5058397;28;20504;-65
2023/10/26 04:26:36;;;;;;;300.25;11.80;;;;;;;;;;5059571;28;20055;-66
2023/10/26 04:29:05;;;;;;;316.35;10.75;;;;;;;;;;5056743;28;20059;-68
2023/10/26 04:31:34;;;;;;;223.40;10.98;;;;;;;;;;5054385;28;20080;-66
2023/10/26 04:34:01;;;;;;;285.73;11.32;;;;;;;;;;5052440;28;20045;-65
2023/10/26 04:36:28;;;;;;;201.57;9.57;;;;;;;;;;5057189;28;20045;-66
2023/10/26 04:38:56;;;;;;;201.48;9.50;;;;;;;;;;5061910;28;20059;-65
2023/10/26 04:41:23;;;;;;;136.02;8.32;;;;;;;;;;5061600;28;20049;-66
2023/10/26 04:43:50;;;;;;;193.30;9.38;;;;;;;;;;5067229;28;20102;-65
2023/10/26 04:46:17;;;;;;;194.43;8.77;;;;;;;;;;5054641;28;20484;-65
2023/10/26 04:48:46;;;;;;;105.47;7.47;;;;;;;;;;5061369;28;20052;-65
2023/10/26 04:51:13;;;;;;;79.32;7.82;;;;;;;;;;5053468;28;20063;-66
2023/10/26 04:53:41;;;;;;;127.78;7.40;;;;;;;;;;5058195;28;20041;-65
2023/10/26 04:56:10;;;;;;;50.08;6.75;;;;;;;;;;5055597;28;20045;-66
2023/10/26 04:58:38;;;;;;;139.10;7.45;;;;;;;;;;5062238;28;20129;-66
2023/10/26 05:01:06;;;;;;;45.47;6.50;;;;;;;;;;5059285;28;20106;-67
2023/10/26 05:03:33;;;;;;;65.78;6.75;;;;;;;;;;5059571;28;20052;-66
2023/10/26 05:06:02;;;;;;;79.90;10.38;;;;;;;;;;5063854;28;20052;-66
2023/10/26 05:08:29;;;;;;;63.30;8.43;;;;;;;;;;5051083;28;20049;-65
2023/10/26 05:10:56;;;;;;;61.63;8.45;;;;;;;;;;5058030;28;20052;-65
2023/10/26 05:13:25;;;;;;;52.10;6.85;;;;;;;;;;5062464;28;20050;-65
2023/10/26 05:15:52;;;;;;;44.55;9.82;;;;;;;;;;5059743;28;20094;-65
2023/10/26 05:18:19;;;;;;;74.72;9.57;;;;;;;;;;5056453;28;20060;-66
2023/10/26 05:20:49;;;;;;;73.75;7.30;;;;;;;;;;5058093;28;20040;-65
2023/10/26 05:23:18;;;;;;;39.63;6.63;;;;;;;;;;5057784;28;20056;-65
2023/10/26 05:25:45;;;;;;;100.63;7.72;;;;;;;;;;5054310;28;20071;-66
2023/10/26 05:28:13;;;;;;;121.18;8.43;;;;;;;;;;5049885;28;20045;-68
2023/10/26 05:30:40;;;;;;;207.85;9.25;;;;;;;;;;5063032;28;20049;-66
2023/10/26 05:33:08;;;;;;;169.82;8.30;;;;;;;;;;5055213;28;20691;-66
2023/10/26 05:35:35;;;;;;;140.20;8.73;;;;;;;;;;5057948;28;20053;-66
2023/10/26 05:38:03;;;;;;;171.65;9.13;;;;;;;;;;5057854;28;20764;-65
2023/10/26 05:40:32;;;;;;;198.25;11.68;;;;;;;;;;5063598;28;20052;-66
2023/10/26 05:42:59;;;;;;;255.18;12.00;;;;;;;;;;5058709;28;20056;-66
2023/10/26 05:45:26;;;;;;;76.55;8.63;;;;;;;;;;5057632;28;20376;-65
2023/10/26 05:47:54;;;;;;;161.57;10.15;;;;;;;;;;5050700;28;20515;-65
2023/10/26 05:50:21;;;;;;;96.70;7.15;;;;;;;;;;5063830;28;20513;-66
2023/10/26 05:52:48;;;;;;;213.32;9.80;;;;;;;;;;5060451;28;20045;-65
2023/10/26 05:55:16;;;;;;;179.98;8.35;;;;;;;;;;5059853;28;20044;-65
2023/10/26 05:57:44;;;;;;;199.55;8.85;;;;;;;;;;5057879;28;20059;-66
2023/10/26 06:00:12;;;;;;;232.65;9.02;;;;;;;;;;5057162;28;20252;-66
2023/10/26 06:02:39;;;;;;;135.05;7.93;;;;;;;;;;5058527;28;20786;-66
2023/10/26 06:05:08;;;;;;;185.50;8.10;;;;;;;;;;5058521;28;20044;-69
2023/10/26 06:07:35;;;;;;;125.60;7.25;;;;;;;;;;5061240;28;20041;-65
2023/10/26 06:10:02;;;;;;;116.20;7.07;;;;;;;;;;5059535;28;20083;-66
2023/10/26 06:12:30;;;;;;;88.00;7.15;;;;;;;;;;5053160;28;20053;-67
2023/10/26 06:14:59;;;;;;;91.72;6.93;;;;;;;;;;5053418;28;20057;-65
2023/10/26 06:17:26;;;;;;;129.73;7.85;;;;;;;;;;5060614;28;20041;-66
2023/10/26 06:19:53;;;;;;;75.43;6.70;;;;;;;;;;5058902;28;20511;-66
2023/10/26 06:22:20;;;;;;;53.53;6.32;;;;;;;;;;5061074;28;20048;-66
2023/10/26 06:24:48;;;;;;;85.13;7.78;;;;;;;;;;5058807;28;20067;-66
2023/10/26 06:27:15;;;;;;;111.93;7.85;;;;;;;;;;5060928;28;20049;-67
2023/10/26 06:29:46;;;;;;;102.65;7.63;;;;;;;;;;5059717;28;20049;-65
2023/10/26 06:32:14;;;;;;;88.43;8.15;;;;;;;;;;5059673;28;20045;-69
2023/10/26 06:34:42;;;;;;;118.82;8.43;;;;;;;;;;5062398;28;20052;-65
2023/10/26 06:37:09;;;;;;;111.72;8.50;;;;;;;;;;5063159;28;20052;-65
2023/10/26 06:39:36;;;;;;;61.28;8.32;;;;;;;;;;5056552;28;20094;-66
2023/10/26 06:42:04;;;;;;;91.03;10.57;;;;;;;;;;5051857;28;20052;-66
2023/10/26 06:44:31;;;;;;;97.93;8.45;;;;;;;;;;5053125;28;20079;-66
2023/10/26 06:46:58;;;;;;;45.47;7.97;;;;;;;;;;5054914;28;20053;-67
2023/10/26 06:49:27;;;;;;;82.85;8.50;;;;;;;;;;5057718;28;20396;-66
2023/10/26 06:51:55;;;;;;;87.47;8.23;;;;;;;;;;5055532;28;20048;-65
2023/10/26 06:54:22;;;;;;;63.33;8.35;;;;;;;;;;5054409;28;20049;-66
2023/10/26 06:56:49;;;;;;;53.75;8.90;;;;;;;;;;5057120;28;20097;-68
2023/10/26 06:59:16;;;;;;;75.80;8.60;;;;;;;;;;5062785;28;20392;-66
2023/10/26 07:01:44;;;;;;;48.28;7.85;;;;;;;;;;5064820;28;20051;-67
2023/10/26 07:04:11;;;;;;;30.52;8.35;;;;;;;;;;5058884;28;20056;-68
2023/10/26 07:06:41;;;;;;;102.82;10.10;;;;;;;;;;5059647;28;20405;-66
2023/10/26 07:09:08;;;;;;;51.90;8.18;;;;;;;;;;5067276;28;20064;-67
2023/10/26 07:11:35;;;;;;;87.70;9.63;;;;;;;;;;5061978;28;20087;-66
2023/10/26 07:14:03;;;;;;;148.88;11.23;;;;;;;;;;5063605;28;20048;-66
2023/10/26 07:16:31;;;;;;;184.48;12.82;;;;;;;;;;5064153;28;20127;-67
2023/10/26 07:18:58;;;;;;;201.13;12.63;;;;;;;;;;5059063;28;20056;-66
2023/10/26 07:21:26;;;;;;;80.35;10.00;;;;;;;;;;5055616;28;20052;-66
2023/10/26 07:23:55;;;;;;;82.13;9.35;;;;;;;;;;5058475;28;20049;-66
2023/10/26 07:26:22;;;;;;;50.63;9.35;;;;;;;;;;5055682;28;20056;-65
2023/10/26 07:28:49;;;;;;;70.72;8.35;;;;;;;;;;5056877;28;20049;-66
2023/10/26 07:31:20;;;;;;;83.00;9.20;;;;;;;;;;5056167;28;20052;-66
2023/10/26 07:33:48;;;;;;;126.28;8.95;;;;;;;;;;5061931;28;20053;-66
2023/10/26 07:36:16;;;;;;;111.72;9.73;;;;;;;;;;5059220;28;20098;-66
2023/10/26 07:38:43;;;;;;;48.80;10.07;;;;;;;;;;5062688;28;20044;-66
2023/10/26 07:41:12;;;;;;;32.38;10.75;;;;;;;;;;5060657;28;20055;-65
2023/10/26 07:43:39;;;;;;;21.40;10.23;;;;;;;;;;5063252;28;20056;-66
2023/10/26 07:46:07;;;;;;;60.25;13.15;;;;;;;;;;5067285;28;20509;-67
2023/10/26 07:48:35;;;;;;;18.40;9.80;;;;;;;;;;5058975;28;20084;-66
2023/10/26 07:51:03;;;;;;;22.42;10.95;;;;;;;;;;5061384;28;20064;-66
2023/10/26 07:53:30;;;;;;;25.65;12.35;;;;;;;;;;5063788;28;20041;-66
2023/10/26 07:55:57;;;;;;;27.80;12.60;;;;;;;;;;5055661;28;20049;-67
2023/10/26 07:58:26;;;;;;;27.50;13.38;;;;;;;;;;5062015;28;20048;-65
2023/10/26 08:00:54;;;;;;;33.70;14.23;;;;;;;;;;5061972;28;20391;-67
2023/10/26 08:03:23;;;;;;;31.23;13.40;;;;;;;;;;5069278;28;20052;-66
2023/10/26 08:05:57;;;;;;;31.88;13.95;;;;;;;;;;5060187;28;20053;-67
2023/10/26 08:08:25;;;;;;;39.20;14.82;;;;;;;;;;5057948;28;20140;-66
2023/10/26 08:10:52;;;;;;;39.60;15.80;;;;;;;;;;5062002;28;20049;-66
2023/10/26 08:13:20;;;;;;;38.88;15.23;;;;;;;;;;5058970;28;20114;-66
2023/10/26 08:15:49;;;;;;;40.72;16.70;;;;;;;;;;5067689;28;20055;-67
2023/10/26 08:18:16;;;;;;;43.95;16.50;;;;;;;;;;5061303;28;20055;-66
2023/10/26 08:20:43;;;;;;;45.55;16.77;;;;;;;;;;5057029;28;20045;-67
2023/10/26 08:23:11;;;;;;;44.60;17.10;;;;;;;;;;5056763;28;20514;-65
2023/10/26 08:25:38;;;;;;;52.65;17.73;;;;;;;;;;5055809;28;20049;-68
2023/10/26 08:28:05;;;;;;;52.53;18.17;;;;;;;;;;5059749;28;20048;-66
2023/10/26 08:30:32;;;;;;;51.28;17.98;;;;;;;;;;5061412;28;20393;-69
2023/10/26 08:33:04;;;;;;;50.63;18.55;;;;;;;;;;5055181;28;20055;-66
2023/10/26 08:35:31;;;;;;;54.72;19.77;;;;;;;;;;5060076;28;20055;-66
2023/10/26 08:37:58;;;;;;;49.28;19.38;;;;;;;;;;5058660;28;20052;-66
2023/10/26 08:40:26;;;;;;;53.25;19.08;;;;;;;;;;5064805;28;20051;-66
2023/10/26 08:42:53;;;;;;;56.83;19.83;;;;;;;;;;5054002;28;20049;-66
2023/10/26 08:45:24;;;;;;;47.47;19.42;;;;;;;;;;5065578;28;20053;-66
2023/10/26 08:47:52;;;;;;;56.63;21.02;;;;;;;;;;5061364;28;20048;-66
2023/10/26 08:50:22;;;;;;;64.97;21.67;;;;;;;;;;5058591;28;20053;-67
2023/10/26 08:52:51;;;;;;;69.07;21.60;;;;;;;;;;5062016;28;20052;-67
2023/10/26 08:55:18;;;;;;;61.42;21.85;;;;;;;;;;5057473;28;20080;-66
2023/10/26 08:57:47;;;;;;;55.17;21.50;;;;;;;;;;5059359;28;20059;-66
2023/10/26 09:00:15;;;;;;;51.10;19.95;;;;;;;;;;5052107;28;20044;-67
2023/10/26 09:02:42;;;;;;;54.75;20.75;;;;;;;;;;5051949;28;20049;-67
2023/10/26 09:05:10;;;;;;;52.95;21.17;;;;;;;;;;5063272;28;20048;-67
2023/10/26 09:07:39;;;;;;;55.17;20.13;;;;;;;;;;5054410;28;20545;-66
2023/10/26 09:10:07;;;;;;;49.92;20.45;;;;;;;;;;5062080;28;20056;-66
2023/10/26 09:12:34;;;;;;;45.65;19.77;;;;;;;;;;5057185;28;20099;-67
2023/10/26 09:15:02;;;;;;;46.90;19.23;;;;;;;;;;5057378;28;20052;-67
2023/10/26 09:17:30;;;;;;;40.42;18.48;;;;;;;;;;5062354;28;20136;-66
2023/10/26 09:19:57;;;;;;;41.47;18.15;;;;;;;;;;5061214;28;20048;-66
2023/10/26 09:22:37;;;;;;;35.20;16.70;;;;;;;;;;5065663;28;20052;-66
2023/10/26 09:25:10;;;;;;;35.00;17.73;;;;;;;;;;5060186;28;20060;-68
2023/10/26 09:27:37;;;;;;;34.20;16.40;;;;;;;;;;5064322;28;20098;-67
2023/10/26 09:30:05;;;;;;;36.42;17.02;;;;;;;;;;5061680;28;20052;-66
2023/10/26 09:32:33;;;;;;;34.13;17.65;;;;;;;;;;5053044;28;20056;-66
2023/10/26 09:35:01;;;;;;;38.45;16.38;;;;;;;;;;5055957;28;20101;-67
2023/10/26 09:37:28;;;;;;;31.75;15.77;;;;;;;;;;5052181;28;20045;-67
2023/10/26 09:39:56;;;;;;;29.10;15.52;;;;;;;;;;5055348;28;20044;-66
2023/10/26 09:42:25;;;;;;;29.65;15.15;;;;;;;;;;5054900;28;20488;-66
2023/10/26 09:44:52;;;;;;;32.40;15.93;;;;;;;;;;5056153;28;20060;-67
2023/10/26 09:47:21;;;;;;;32.33;17.02;;;;;;;;;;5056604;28;20041;-67
2023/10/26 09:49:49;;;;;;;33.85;17.05;;;;;;;;;;5061082;28;20119;-68
2023/10/26 09:52:16;;;;;;;32.08;17.00;;;;;;;;;;5061964;28;20131;-67
2023/10/26 09:54:43;;;;;;;31.58;15.38;;;;;;;;;;5058642;28;20054;-67
2023/10/26 09:57:12;;;;;;;32.50;16.60;;;;;;;;;;5060187;28;20044;-67
2023/10/26 09:59:41;;;;;;;33.00;16.30;;;;;;;;;;5061691;28;20057;-66
2023/10/26 10:02:13;;;;;;;34.83;17.08;;;;;;;;;;5057525;28;20055;-66
2023/10/26 10:04:41;;;;;;;31.98;16.75;;;;;;;;;;5067150;28;20053;-66
2023/10/26 10:07:08;;;;;;;31.00;16.15;;;;;;;;;;5058467;28;20093;-68
2023/10/26 10:09:58;;;;;;;27.27;15.18;;;;;;;;;;5063538;28;20386;-68
2023/10/26 10:12:35;;;;;;;33.35;16.55;;;;;;;;;;5057054;28;20049;-67
2023/10/26 10:15:06;;;;;;;38.50;16.30;;;;;;;;;;5051999;28;20073;-68
2023/10/26 10:17:52;;;;;;;28.98;15.90;;;;;;;;;;5051456;28;20051;-67
2023/10/26 10:20:29;;;;;;;28.75;15.95;;;;;;;;;;5059851;28;20045;-66
2023/10/26 10:22:58;;;;;;;30.92;16.35;;;;;;;;;;5057108;28;20095;-67
2023/10/26 10:25:40;;;;;;;27.38;15.48;;;;;;;;;;5064044;28;20036;-67
2023/10/26 10:28:11;;;;;;;29.42;16.02;;;;;;;;;;5054839;28;20056;-67
2023/10/26 10:30:55;;;;;;;30.10;15.60;;;;;;;;;;5060400;28;20058;-67
2023/10/26 10:33:23;;;;;;;29.88;15.40;;;;;;;;;;5064760;28;20135;-66
2023/10/26 10:35:53;;;;;;;27.60;14.82;;;;;;;;;;5060032;28;20128;-68
2023/10/26 10:38:22;;;;;;;31.50;15.13;;;;;;;;;;5063302;28;20111;-66
2023/10/26 10:41:08;;;;;;;27.17;15.52;;;;;;;;;;5056598;28;20053;-67
2023/10/26 10:43:37;;;;;;;23.95;14.93;;;;;;;;;;5062672;28;20056;-66
2023/10/26 10:46:16;;;;;;;24.70;14.98;;;;;;;;;;5065058;28;20095;-67
2023/10/26 10:49:04;;;;;;;26.27;14.57;;;;;;;;;;5060968;28;20059;-68
2023/10/26 10:51:32;;;;;;;31.65;15.25;;;;;;;;;;5052240;28;20095;-66
2023/10/26 10:53:59;;;;;;;29.52;14.63;;;;;;;;;;5062494;28;20504;-67
2023/10/26 10:56:26;;;;;;;28.13;14.18;;;;;;;;;;5054678;28;20052;-66
2023/10/26 10:58:56;;;;;;;28.77;14.63;;;;;;;;;;5064564;28;20045;-67
2023/10/26 11:01:25;;;;;;;26.67;13.88;;;;;;;;;;5063945;28;20048;-67
2023/10/26 11:04:03;;;;;;;29.73;14.75;;;;;;;;;;5065630;28;20131;-67
2023/10/26 11:06:30;;;;;;;29.48;14.48;;;;;;;;;;5063024;28;20048;-67
2023/10/26 11:08:58;;;;;;;27.15;14.73;;;;;;;;;;5058287;28;20543;-67
2023/10/26 11:11:26;;;;;;;30.05;14.35;;;;;;;;;;5058835;28;20044;-68
2023/10/26 11:14:06;;;;;;;24.67;13.82;;;;;;;;;;5063629;28;20056;-67
2023/10/26 11:16:35;;;;;;;23.63;13.90;;;;;;;;;;5056279;28;20131;-68
2023/10/26 11:19:03;;;;;;;21.67;12.55;;;;;;;;;;5064988;28;20566;-68
2023/10/26 11:21:30;;;;;;;22.75;12.80;;;;;;;;;;5059311;28;20045;-68
2023/10/26 11:23:57;;;;;;;20.20;11.80;;;;;;;;;;5063957;28;20114;-66
2023/10/26 11:26:24;;;;;;;23.55;12.65;;;;;;;;;;5059998;28;20517;-67
2023/10/26 11:28:51;;;;;;;22.23;11.13;;;;;;;;;;5059888;28;20047;-67
2023/10/26 11:31:34;;;;;;;19.35;11.63;;;;;;;;;;5059713;28;20091;-67
2023/10/26 11:34:06;;;;;;;18.15;11.38;;;;;;;;;;5051486;28;20397;-67
2023/10/26 11:36:33;;;;;;;22.17;11.75;;;;;;;;;;5058259;28;20052;-68
2023/10/26 11:39:01;;;;;;;23.40;12.90;;;;;;;;;;5065898;28;20051;-67
2023/10/26 11:41:29;;;;;;;24.90;12.80;;;;;;;;;;5057369;28;20480;-68
2023/10/26 11:43:56;;;;;;;19.13;11.30;;;;;;;;;;5065810;28;20217;-68
2023/10/26 11:46:30;;;;;;;19.23;11.30;;;;;;;;;;5058559;28;20059;-67
2023/10/26 11:48:57;;;;;;;23.90;11.43;;;;;;;;;;5058306;28;20049;-67
2023/10/26 11:51:26;;;;;;;19.60;11.23;;;;;;;;;;5061849;28;20044;-67
2023/10/26 11:53:53;;;;;;;18.75;11.70;;;;;;;;;;5062400;28;20045;-66
2023/10/26 11:56:20;;;;;;;19.15;12.02;;;;;;;;;;5059868;28;20040;-67
2023/10/26 11:58:48;;;;;;;19.35;11.15;;;;;;;;;;5062130;28;20045;-67
2023/10/26 12:01:15;;;;;;;19.77;12.00;;;;;;;;;;5060813;28;20053;-69
2023/10/26 12:03:47;;;;;;;17.95;11.35;;;;;;;;;;5062452;28;20753;-67
2023/10/26 12:06:14;;;;;;;19.23;10.50;;;;;;;;;;5066902;28;20059;-68
2023/10/26 12:08:43;;;;;;;13.98;9.13;;;;;;;;;;5052541;28;20531;-67
2023/10/26 12:11:11;;;;;;;17.55;9.65;;;;;;;;;;5056178;28;20049;-68
2023/10/26 12:13:39;;;;;;;19.67;10.05;;;;;;;;;;5057921;28;20483;-68
2023/10/26 12:16:06;;;;;;;17.55;10.63;;;;;;;;;;5056716;28;20052;-68
2023/10/26 12:18:35;;;;;;;15.00;9.30;;;;;;;;;;5055935;28;20056;-69
2023/10/26 12:21:02;;;;;;;13.07;8.75;;;;;;;;;;5066902;28;20056;-70
2023/10/26 12:23:29;;;;;;;17.92;9.18;;;;;;;;;;5061909;28;20047;-68
2023/10/26 12:25:58;;;;;;;18.77;9.38;;;;;;;;;;5059366;28;20044;-68
2023/10/26 12:28:25;;;;;;;15.75;9.77;;;;;;;;;;5057261;28;20044;-68
2023/10/26 12:30:53;;;;;;;17.52;9.25;;;;;;;;;;5059775;28;20472;-68
2023/10/26 12:33:20;;;;;;;16.58;10.38;;;;;;;;;;5056698;28;20389;-67
2023/10/26 12:35:47;;;;;;;18.73;9.88;;;;;;;;;;5056109;28;20079;-68
2023/10/26 12:38:15;;;;;;;14.68;9.27;;;;;;;;;;5067963;28;20052;-68
2023/10/26 12:40:42;;;;;;;14.65;8.93;;;;;;;;;;5060876;28;20454;-68
2023/10/26 12:43:11;;;;;;;15.40;9.15;;;;;;;;;;5059070;28;20071;-68
2023/10/26 12:45:38;;;;;;;14.10;9.43;;;;;;;;;;5053705;28;20082;-68
2023/10/26 12:48:05;;;;;;;14.63;9.63;;;;;;;;;;5061184;28;20048;-67
2023/10/26 12:50:33;;;;;;;16.30;10.18;;;;;;;;;;5059753;28;20128;-67
2023/10/26 12:53:00;;;;;;;17.33;9.75;;;;;;;;;;5053640;28;20482;-69
2023/10/26 12:55:29;;;;;;;18.10;10.43;;;;;;;;;;5057655;28;20045;-67
2023/10/26 12:57:56;;;;;;;17.95;10.00;;;;;;;;;;5058173;28;20056;-67
2023/10/26 13:00:26;;;;;;;18.13;10.52;;;;;;;;;;5051162;28;20088;-68
2023/10/26 13:02:53;;;;;;;18.05;10.95;;;;;;;;;;5064373;28;20048;-68
2023/10/26 13:05:20;;;;;;;17.70;10.73;;;;;;;;;;5062508;28;20053;-67
2023/10/26 13:07:47;;;;;;;19.75;10.48;;;;;;;;;;5053932;28;20052;-68
2023/10/26 13:10:15;;;;;;;17.02;10.20;;;;;;;;;;5057739;28;20063;-68
2023/10/26 13:12:43;;;;;;;14.45;9.65;;;;;;;;;;5061459;28;20055;-67
2023/10/26 13:15:14;;;;;;;16.52;10.35;;;;;;;;;;5060845;28;20052;-67
2023/10/26 13:17:42;;;;;;;15.70;10.15;;;;;;;;;;5057805;28;20049;-68
2023/10/26 13:20:10;;;;;;;16.33;9.95;;;;;;;;;;5064507;28;20507;-67
2023/10/26 13:22:37;;;;;;;18.10;10.70;;;;;;;;;;5060233;28;20077;-68
2023/10/26 13:25:05;;;;;;;16.52;10.13;;;;;;;;;;5056121;28;20053;-68
2023/10/26 13:27:32;;;;;;;19.95;10.80;;;;;;;;;;5063369;28;20052;-68
2023/10/26 13:29:59;;;;;;;16.77;10.45;;;;;;;;;;5057209;28;20491;-68
2023/10/26 13:32:27;;;;;;;17.38;10.25;;;;;;;;;;5062705;28;20044;-68
2023/10/26 13:34:56;;;;;;;15.00;9.55;;;;;;;;;;5058133;28;20549;-68
2023/10/26 13:37:23;;;;;;;16.83;10.68;;;;;;;;;;5055474;28;20064;-67
2023/10/26 13:39:50;;;;;;;15.60;10.60;;;;;;;;;;5062391;28;20106;-68
2023/10/26 13:42:17;;;;;;;19.05;10.98;;;;;;;;;;5061356;28;20053;-67
2023/10/26 13:44:45;;;;;;;18.70;11.40;;;;;;;;;;5065007;28;20048;-70
2023/10/26 13:47:12;;;;;;;17.13;11.02;;;;;;;;;;5056275;28;20052;-68
2023/10/26 13:49:39;;;;;;;16.45;10.60;;;;;;;;;;5058304;28;20037;-68
2023/10/26 13:52:08;;;;;;;17.58;11.20;;;;;;;;;;5058487;28;20127;-67
2023/10/26 13:54:35;;;;;;;18.35;10.07;;;;;;;;;;5059184;28;20060;-68
2023/10/26 13:57:03;;;;;;;15.70;11.07;;;;;;;;;;5060602;28;20440;-67
2023/10/26 13:59:30;;;;;;;15.88;10.07;;;;;;;;;;5059151;28;20059;-68
2023/10/26 14:01:57;;;;;;;16.83;9.85;;;;;;;;;;5060685;28;20070;-68
2023/10/26 14:04:25;;;;;;;15.13;9.75;;;;;;;;;;5067855;28;20052;-68
2023/10/26 14:06:52;;;;;;;17.35;10.20;;;;;;;;;;5064040;28;20048;-69
2023/10/26 14:09:22;;;;;;;18.33;9.18;;;;;;;;;;5061409;28;20065;-69
2023/10/26 14:11:49;;;;;;;14.73;9.57;;;;;;;;;;5070760;28;20054;-68
2023/10/26 14:14:16;;;;;;;16.90;10.48;;;;;;;;;;5061953;28;20057;-69
2023/10/26 14:16:44;;;;;;;15.35;10.05;;;;;;;;;;5063445;28;20543;-69
2023/10/26 14:19:11;;;;;;;16.35;10.30;;;;;;;;;;5062055;28;20446;-68
2023/10/26 14:21:38;;;;;;;18.02;9.85;;;;;;;;;;5052388;28;20103;-69
2023/10/26 14:24:08;;;;;;;17.33;10.50;;;;;;;;;;5067177;28;20085;-67